sensor_id;sensor_type;location;lat;lon;timestamp;temperature;humidity
54126;DHT22;40360;52.992;6.796;2022-12-18T00:00:46;-3.70;99.90
54126;DHT22;40360;52.992;6.796;2022-12-18T00:03:16;-3.60;99.90
54126;DHT22;40360;52.992;6.796;2022-12-18T00:05:51;-3.60;99.90
54126;DHT22;40360;52.992;6.796;2022-12-18T00:08:18;-3.60;99.90
54126;DHT22;40360;52.992;6.796;2022-12-18T00:10:45;-3.70;99.90
54126;DHT22;40360;52.992;6.796;2022-12-18T00:13:11;-3.70;99.90
54126;DHT22;40360;52.992;6.796;2022-12-18T00:15:37;-3.70;99.90
54126;DHT22;40360;52.992;6.796;2022-12-18T00:18:04;-3.70;99.90
54126;DHT22;40360;52.992;6.796;2022-12-18T00:20:29;-3.70;99.90
54126;DHT22;40360;52.992;6.796;2022-12-18T00:22:55;-3.80;99.90
54126;DHT22;40360;52.992;6.796;2022-12-18T00:25:21;-3.80;99.90
54126;DHT22;40360;52.992;6.796;2022-12-18T00:27:47;-3.80;99.90
54126;DHT22;40360;52.992;6.796;2022-12-18T00:30:12;-3.70;99.90
54126;DHT22;40360;52.992;6.796;2022-12-18T00:32:38;-3.80;99.90
54126;DHT22;40360;52.992;6.796;2022-12-18T00:35:05;-3.80;99.90
54126;DHT22;40360;52.992;6.796;2022-12-18T00:37:32;-3.80;99.90
54126;DHT22;40360;52.992;6.796;2022-12-18T00:39:58;-3.80;99.90
54126;DHT22;40360;52.992;6.796;2022-12-18T00:42:24;-3.80;99.90
54126;DHT22;40360;52.992;6.796;2022-12-18T00:45:08;-3.80;99.90
54126;DHT22;40360;52.992;6.796;2022-12-18T00:47:34;-3.70;99.90
54126;DHT22;40360;52.992;6.796;2022-12-18T00:49:59;-3.80;99.90
54126;DHT22;40360;52.992;6.796;2022-12-18T00:52:25;-3.80;99.90
54126;DHT22;40360;52.992;6.796;2022-12-18T00:54:50;-3.80;99.90
54126;DHT22;40360;52.992;6.796;2022-12-18T00:57:16;-3.80;99.90
54126;DHT22;40360;52.992;6.796;2022-12-18T00:59:41;-3.80;99.90
54126;DHT22;40360;52.992;6.796;2022-12-18T01:02:07;-3.80;99.90
54126;DHT22;40360;52.992;6.796;2022-12-18T01:04:33;-3.80;99.90
54126;DHT22;40360;52.992;6.796;2022-12-18T01:06:59;-3.80;99.90
54126;DHT22;40360;52.992;6.796;2022-12-18T01:09:24;-3.80;99.90
54126;DHT22;40360;52.992;6.796;2022-12-18T01:11:50;-3.80;99.90
54126;DHT22;40360;52.992;6.796;2022-12-18T01:14:16;-3.80;99.90
54126;DHT22;40360;52.992;6.796;2022-12-18T01:16:44;-3.80;99.90
54126;DHT22;40360;52.992;6.796;2022-12-18T01:19:10;-3.80;99.90
54126;DHT22;40360;52.992;6.796;2022-12-18T01:21:35;-3.80;99.90
54126;DHT22;40360;52.992;6.796;2022-12-18T01:24:01;-3.70;99.90
54126;DHT22;40360;52.992;6.796;2022-12-18T01:26:27;-3.80;99.90
54126;DHT22;40360;52.992;6.796;2022-12-18T01:28:56;-3.80;99.90
54126;DHT22;40360;52.992;6.796;2022-12-18T01:31:27;-3.80;99.90
54126;DHT22;40360;52.992;6.796;2022-12-18T01:33:54;-3.80;99.90
54126;DHT22;40360;52.992;6.796;2022-12-18T01:36:23;-3.80;99.90
54126;DHT22;40360;52.992;6.796;2022-12-18T01:38:50;-3.80;99.90
54126;DHT22;40360;52.992;6.796;2022-12-18T01:41:18;-3.80;99.90
54126;DHT22;40360;52.992;6.796;2022-12-18T01:46:13;-3.90;99.90
54126;DHT22;40360;52.992;6.796;2022-12-18T01:48:39;-3.90;99.90
54126;DHT22;40360;52.992;6.796;2022-12-18T01:51:08;-3.90;99.90
54126;DHT22;40360;52.992;6.796;2022-12-18T01:53:36;-3.90;99.90
54126;DHT22;40360;52.992;6.796;2022-12-18T01:56:02;-4.00;99.90
54126;DHT22;40360;52.992;6.796;2022-12-18T01:58:45;-4.00;99.90
54126;DHT22;40360;52.992;6.796;2022-12-18T02:01:11;-4.00;99.90
54126;DHT22;40360;52.992;6.796;2022-12-18T02:03:37;-4.00;99.90
54126;DHT22;40360;52.992;6.796;2022-12-18T02:06:13;-4.00;99.90
54126;DHT22;40360;52.992;6.796;2022-12-18T02:17:03;-4.00;99.90
54126;DHT22;40360;52.992;6.796;2022-12-18T02:19:52;-4.00;99.90
54126;DHT22;40360;52.992;6.796;2022-12-18T02:27:37;-4.10;99.90
54126;DHT22;40360;52.992;6.796;2022-12-18T02:30:04;-4.10;99.90
54126;DHT22;40360;52.992;6.796;2022-12-18T02:32:42;-4.10;99.90
54126;DHT22;40360;52.992;6.796;2022-12-18T02:35:13;-4.20;99.90
54126;DHT22;40360;52.992;6.796;2022-12-18T02:37:42;-4.20;99.90
54126;DHT22;40360;52.992;6.796;2022-12-18T02:40:09;-4.20;99.90
54126;DHT22;40360;52.992;6.796;2022-12-18T02:42:36;-4.20;99.90
54126;DHT22;40360;52.992;6.796;2022-12-18T02:45:02;-4.10;99.90
54126;DHT22;40360;52.992;6.796;2022-12-18T02:47:34;-4.20;99.90
54126;DHT22;40360;52.992;6.796;2022-12-18T02:50:38;-4.20;99.90
54126;DHT22;40360;52.992;6.796;2022-12-18T02:53:27;-4.30;99.90
54126;DHT22;40360;52.992;6.796;2022-12-18T02:58:57;-4.40;99.90
54126;DHT22;40360;52.992;6.796;2022-12-18T03:04:01;-4.40;99.90
54126;DHT22;40360;52.992;6.796;2022-12-18T03:06:37;-4.50;99.90
54126;DHT22;40360;52.992;6.796;2022-12-18T03:09:12;-4.40;99.90
54126;DHT22;40360;52.992;6.796;2022-12-18T03:11:41;-4.40;99.90
54126;DHT22;40360;52.992;6.796;2022-12-18T03:14:30;-4.30;99.90
54126;DHT22;40360;52.992;6.796;2022-12-18T03:17:00;-4.30;99.90
54126;DHT22;40360;52.992;6.796;2022-12-18T03:19:28;-4.30;99.90
54126;DHT22;40360;52.992;6.796;2022-12-18T03:21:57;-4.40;99.90
54126;DHT22;40360;52.992;6.796;2022-12-18T03:24:25;-4.40;99.90
54126;DHT22;40360;52.992;6.796;2022-12-18T03:26:59;-4.40;99.90
54126;DHT22;40360;52.992;6.796;2022-12-18T03:29:31;-4.40;99.90
54126;DHT22;40360;52.992;6.796;2022-12-18T03:32:04;-4.50;99.90
54126;DHT22;40360;52.992;6.796;2022-12-18T03:34:35;-4.50;99.90
54126;DHT22;40360;52.992;6.796;2022-12-18T03:37:01;-4.50;99.90
54126;DHT22;40360;52.992;6.796;2022-12-18T03:39:27;-4.50;99.90
54126;DHT22;40360;52.992;6.796;2022-12-18T03:41:55;-4.50;99.90
54126;DHT22;40360;52.992;6.796;2022-12-18T03:44:45;-4.50;99.90
54126;DHT22;40360;52.992;6.796;2022-12-18T03:52:34;-4.60;99.90
54126;DHT22;40360;52.992;6.796;2022-12-18T03:55:02;-4.60;99.90
54126;DHT22;40360;52.992;6.796;2022-12-18T03:57:30;-4.60;99.90
54126;DHT22;40360;52.992;6.796;2022-12-18T04:00:00;-4.60;99.90
54126;DHT22;40360;52.992;6.796;2022-12-18T04:02:28;-4.60;99.90
54126;DHT22;40360;52.992;6.796;2022-12-18T04:04:58;-4.60;99.90
54126;DHT22;40360;52.992;6.796;2022-12-18T04:07:25;-4.60;99.90
54126;DHT22;40360;52.992;6.796;2022-12-18T04:09:53;-4.70;99.90
54126;DHT22;40360;52.992;6.796;2022-12-18T04:12:19;-4.70;99.90
54126;DHT22;40360;52.992;6.796;2022-12-18T04:14:45;-4.70;99.90
54126;DHT22;40360;52.992;6.796;2022-12-18T04:17:11;-4.70;99.90
54126;DHT22;40360;52.992;6.796;2022-12-18T04:19:36;-4.80;99.90
54126;DHT22;40360;52.992;6.796;2022-12-18T04:22:02;-4.80;99.90
54126;DHT22;40360;52.992;6.796;2022-12-18T04:24:27;-4.90;99.90
54126;DHT22;40360;52.992;6.796;2022-12-18T04:26:54;-5.00;99.90
54126;DHT22;40360;52.992;6.796;2022-12-18T04:29:20;-5.00;99.90
54126;DHT22;40360;52.992;6.796;2022-12-18T04:31:45;-5.00;99.90
54126;DHT22;40360;52.992;6.796;2022-12-18T04:34:11;-5.00;99.90
54126;DHT22;40360;52.992;6.796;2022-12-18T04:36:36;-5.10;99.90
54126;DHT22;40360;52.992;6.796;2022-12-18T04:39:02;-5.10;99.90
54126;DHT22;40360;52.992;6.796;2022-12-18T04:41:28;-5.10;99.90
54126;DHT22;40360;52.992;6.796;2022-12-18T04:43:53;-5.20;99.90
54126;DHT22;40360;52.992;6.796;2022-12-18T04:46:19;-5.20;99.90
54126;DHT22;40360;52.992;6.796;2022-12-18T04:48:46;-5.10;99.90
54126;DHT22;40360;52.992;6.796;2022-12-18T04:51:12;-5.10;99.90
54126;DHT22;40360;52.992;6.796;2022-12-18T04:53:38;-5.10;99.90
54126;DHT22;40360;52.992;6.796;2022-12-18T04:56:11;-5.10;99.90
54126;DHT22;40360;52.992;6.796;2022-12-18T04:58:39;-5.10;99.90
54126;DHT22;40360;52.992;6.796;2022-12-18T05:01:05;-5.10;99.90
54126;DHT22;40360;52.992;6.796;2022-12-18T05:20:38;-4.80;99.90
54126;DHT22;40360;52.992;6.796;2022-12-18T05:23:04;-4.90;99.90
54126;DHT22;40360;52.992;6.796;2022-12-18T05:25:29;-5.00;99.90
54126;DHT22;40360;52.992;6.796;2022-12-18T05:27:55;-4.90;99.90
54126;DHT22;40360;52.992;6.796;2022-12-18T05:30:20;-5.00;99.90
54126;DHT22;40360;52.992;6.796;2022-12-18T05:32:46;-5.00;99.90
54126;DHT22;40360;52.992;6.796;2022-12-18T05:35:12;-4.90;99.90
54126;DHT22;40360;52.992;6.796;2022-12-18T05:37:37;-4.80;99.90
54126;DHT22;40360;52.992;6.796;2022-12-18T05:40:04;-4.80;99.90
54126;DHT22;40360;52.992;6.796;2022-12-18T05:42:30;-4.80;99.90
54126;DHT22;40360;52.992;6.796;2022-12-18T05:44:56;-4.80;99.90
54126;DHT22;40360;52.992;6.796;2022-12-18T05:47:21;-4.70;99.90
54126;DHT22;40360;52.992;6.796;2022-12-18T05:49:47;-4.70;99.90
54126;DHT22;40360;52.992;6.796;2022-12-18T05:52:13;-4.70;99.90
54126;DHT22;40360;52.992;6.796;2022-12-18T05:54:38;-4.70;99.90
54126;DHT22;40360;52.992;6.796;2022-12-18T05:57:05;-4.70;99.90
54126;DHT22;40360;52.992;6.796;2022-12-18T05:59:30;-4.70;99.90
54126;DHT22;40360;52.992;6.796;2022-12-18T06:01:56;-4.70;99.90
54126;DHT22;40360;52.992;6.796;2022-12-18T06:04:21;-4.70;99.90
54126;DHT22;40360;52.992;6.796;2022-12-18T06:06:47;-4.70;99.90
54126;DHT22;40360;52.992;6.796;2022-12-18T06:09:12;-4.70;99.90
54126;DHT22;40360;52.992;6.796;2022-12-18T06:11:38;-4.80;99.90
54126;DHT22;40360;52.992;6.796;2022-12-18T06:14:05;-4.90;99.90
54126;DHT22;40360;52.992;6.796;2022-12-18T06:16:32;-4.90;99.90
54126;DHT22;40360;52.992;6.796;2022-12-18T06:18:59;-4.90;99.90
54126;DHT22;40360;52.992;6.796;2022-12-18T06:21:26;-4.90;99.90
54126;DHT22;40360;52.992;6.796;2022-12-18T06:23:52;-4.90;99.90
54126;DHT22;40360;52.992;6.796;2022-12-18T06:26:18;-4.90;99.90
54126;DHT22;40360;52.992;6.796;2022-12-18T06:28:43;-4.90;99.90
54126;DHT22;40360;52.992;6.796;2022-12-18T06:31:09;-4.90;99.90
54126;DHT22;40360;52.992;6.796;2022-12-18T06:33:35;-4.90;99.90
54126;DHT22;40360;52.992;6.796;2022-12-18T06:36:12;-5.00;99.90
54126;DHT22;40360;52.992;6.796;2022-12-18T06:38:40;-5.00;99.90
54126;DHT22;40360;52.992;6.796;2022-12-18T06:41:10;-5.00;99.90
54126;DHT22;40360;52.992;6.796;2022-12-18T06:43:35;-5.00;99.90
54126;DHT22;40360;52.992;6.796;2022-12-18T06:46:02;-5.00;99.90
54126;DHT22;40360;52.992;6.796;2022-12-18T06:48:29;-5.00;99.90
54126;DHT22;40360;52.992;6.796;2022-12-18T06:50:54;-5.00;99.90
54126;DHT22;40360;52.992;6.796;2022-12-18T06:53:20;-5.10;99.90
54126;DHT22;40360;52.992;6.796;2022-12-18T06:55:46;-5.10;99.90
54126;DHT22;40360;52.992;6.796;2022-12-18T06:58:11;-5.10;99.90
54126;DHT22;40360;52.992;6.796;2022-12-18T07:00:37;-5.10;99.90
54126;DHT22;40360;52.992;6.796;2022-12-18T07:03:03;-5.20;99.90
54126;DHT22;40360;52.992;6.796;2022-12-18T07:05:28;-5.30;99.90
54126;DHT22;40360;52.992;6.796;2022-12-18T07:07:54;-5.40;99.90
54126;DHT22;40360;52.992;6.796;2022-12-18T07:10:20;-5.50;99.90
54126;DHT22;40360;52.992;6.796;2022-12-18T07:12:46;-5.50;99.90
54126;DHT22;40360;52.992;6.796;2022-12-18T07:15:11;-5.50;99.90
54126;DHT22;40360;52.992;6.796;2022-12-18T07:17:37;-5.40;99.90
54126;DHT22;40360;52.992;6.796;2022-12-18T07:20:03;-5.40;99.90
54126;DHT22;40360;52.992;6.796;2022-12-18T07:22:29;-5.40;99.90
54126;DHT22;40360;52.992;6.796;2022-12-18T07:24:54;-5.50;99.90
54126;DHT22;40360;52.992;6.796;2022-12-18T07:27:21;-5.50;99.90
54126;DHT22;40360;52.992;6.796;2022-12-18T07:29:46;-5.50;99.90
54126;DHT22;40360;52.992;6.796;2022-12-18T07:32:13;-5.60;99.90
54126;DHT22;40360;52.992;6.796;2022-12-18T07:34:38;-5.60;99.90
54126;DHT22;40360;52.992;6.796;2022-12-18T07:37:04;-5.80;99.90
54126;DHT22;40360;52.992;6.796;2022-12-18T07:39:30;-5.80;99.90
54126;DHT22;40360;52.992;6.796;2022-12-18T07:41:55;-5.90;99.90
54126;DHT22;40360;52.992;6.796;2022-12-18T07:44:40;-6.00;99.90
54126;DHT22;40360;52.992;6.796;2022-12-18T07:47:06;-6.00;99.90
54126;DHT22;40360;52.992;6.796;2022-12-18T07:49:32;-6.00;99.90
54126;DHT22;40360;52.992;6.796;2022-12-18T07:51:57;-6.00;99.90
54126;DHT22;40360;52.992;6.796;2022-12-18T07:54:24;-6.00;99.90
54126;DHT22;40360;52.992;6.796;2022-12-18T07:56:50;-6.00;99.90
54126;DHT22;40360;52.992;6.796;2022-12-18T07:59:16;-6.00;99.90
54126;DHT22;40360;52.992;6.796;2022-12-18T08:01:42;-6.00;99.90
54126;DHT22;40360;52.992;6.796;2022-12-18T08:04:07;-6.00;99.90
54126;DHT22;40360;52.992;6.796;2022-12-18T08:06:33;-6.00;99.90
54126;DHT22;40360;52.992;6.796;2022-12-18T08:08:58;-6.00;99.90
54126;DHT22;40360;52.992;6.796;2022-12-18T08:11:26;-5.90;99.90
54126;DHT22;40360;52.992;6.796;2022-12-18T08:13:52;-5.90;99.90
54126;DHT22;40360;52.992;6.796;2022-12-18T08:16:18;-5.80;99.90
54126;DHT22;40360;52.992;6.796;2022-12-18T08:18:44;-5.80;99.90
54126;DHT22;40360;52.992;6.796;2022-12-18T08:21:11;-5.70;99.90
54126;DHT22;40360;52.992;6.796;2022-12-18T08:23:41;-5.80;99.90
54126;DHT22;40360;52.992;6.796;2022-12-18T08:26:07;-5.70;99.90
54126;DHT22;40360;52.992;6.796;2022-12-18T08:28:33;-5.60;99.90
54126;DHT22;40360;52.992;6.796;2022-12-18T08:30:59;-5.60;99.90
54126;DHT22;40360;52.992;6.796;2022-12-18T08:33:25;-5.50;99.90
54126;DHT22;40360;52.992;6.796;2022-12-18T08:35:51;-5.50;99.90
54126;DHT22;40360;52.992;6.796;2022-12-18T08:38:17;-5.50;99.90
54126;DHT22;40360;52.992;6.796;2022-12-18T08:40:43;-5.50;99.90
54126;DHT22;40360;52.992;6.796;2022-12-18T08:43:09;-5.40;99.90
54126;DHT22;40360;52.992;6.796;2022-12-18T08:45:54;-5.40;99.90
54126;DHT22;40360;52.992;6.796;2022-12-18T08:48:20;-5.30;99.90
54126;DHT22;40360;52.992;6.796;2022-12-18T08:50:59;-5.40;99.90
54126;DHT22;40360;52.992;6.796;2022-12-18T08:53:25;-5.40;99.90
54126;DHT22;40360;52.992;6.796;2022-12-18T08:55:51;-5.30;99.90
54126;DHT22;40360;52.992;6.796;2022-12-18T08:58:17;-5.30;99.90
54126;DHT22;40360;52.992;6.796;2022-12-18T09:00:43;-5.30;99.90
54126;DHT22;40360;52.992;6.796;2022-12-18T09:03:13;-5.30;99.90
54126;DHT22;40360;52.992;6.796;2022-12-18T09:05:40;-5.20;99.90
54126;DHT22;40360;52.992;6.796;2022-12-18T09:08:06;-5.20;99.90
54126;DHT22;40360;52.992;6.796;2022-12-18T09:10:31;-5.20;99.90
54126;DHT22;40360;52.992;6.796;2022-12-18T09:12:57;-5.10;99.90
54126;DHT22;40360;52.992;6.796;2022-12-18T09:15:23;-5.10;99.90
54126;DHT22;40360;52.992;6.796;2022-12-18T09:17:49;-5.10;99.90
54126;DHT22;40360;52.992;6.796;2022-12-18T09:20:16;-5.00;99.90
54126;DHT22;40360;52.992;6.796;2022-12-18T09:22:42;-4.90;99.90
54126;DHT22;40360;52.992;6.796;2022-12-18T09:25:07;-4.90;99.90
54126;DHT22;40360;52.992;6.796;2022-12-18T09:27:34;-4.80;99.90
54126;DHT22;40360;52.992;6.796;2022-12-18T09:30:00;-4.80;99.90
54126;DHT22;40360;52.992;6.796;2022-12-18T09:32:26;-4.70;99.90
54126;DHT22;40360;52.992;6.796;2022-12-18T09:34:51;-4.60;99.90
54126;DHT22;40360;52.992;6.796;2022-12-18T09:37:17;-4.60;99.90
54126;DHT22;40360;52.992;6.796;2022-12-18T09:39:42;-4.50;99.90
54126;DHT22;40360;52.992;6.796;2022-12-18T09:42:20;-4.40;99.90
54126;DHT22;40360;52.992;6.796;2022-12-18T09:44:50;-4.40;99.90
54126;DHT22;40360;52.992;6.796;2022-12-18T09:47:32;-4.30;99.90
54126;DHT22;40360;52.992;6.796;2022-12-18T09:50:04;-4.20;99.90
54126;DHT22;40360;52.992;6.796;2022-12-18T09:52:35;-4.10;99.90
54126;DHT22;40360;52.992;6.796;2022-12-18T09:55:15;-4.00;99.90
54126;DHT22;40360;52.992;6.796;2022-12-18T09:57:52;-3.90;99.90
54126;DHT22;40360;52.992;6.796;2022-12-18T10:00:22;-3.80;99.90
54126;DHT22;40360;52.992;6.796;2022-12-18T10:02:50;-3.80;99.90
54126;DHT22;40360;52.992;6.796;2022-12-18T10:05:20;-3.70;99.90
54126;DHT22;40360;52.992;6.796;2022-12-18T10:27:40;-3.50;99.90
54126;DHT22;40360;52.992;6.796;2022-12-18T10:30:20;-3.50;99.90
54126;DHT22;40360;52.992;6.796;2022-12-18T10:32:46;-3.50;99.90
54126;DHT22;40360;52.992;6.796;2022-12-18T10:35:23;-3.50;99.90
54126;DHT22;40360;52.992;6.796;2022-12-18T10:40:28;-3.40;99.90
54126;DHT22;40360;52.992;6.796;2022-12-18T10:43:14;-3.40;99.90
54126;DHT22;40360;52.992;6.796;2022-12-18T10:45:41;-3.40;99.90
54126;DHT22;40360;52.992;6.796;2022-12-18T10:48:21;-3.30;99.90
54126;DHT22;40360;52.992;6.796;2022-12-18T10:50:49;-3.30;99.90
54126;DHT22;40360;52.992;6.796;2022-12-18T10:53:24;-3.20;99.90
54126;DHT22;40360;52.992;6.796;2022-12-18T10:55:52;-3.20;99.90
54126;DHT22;40360;52.992;6.796;2022-12-18T11:03:41;-3.00;99.90
54126;DHT22;40360;52.992;6.796;2022-12-18T11:06:08;-3.00;99.90
54126;DHT22;40360;52.992;6.796;2022-12-18T11:08:38;-2.90;99.90
54126;DHT22;40360;52.992;6.796;2022-12-18T11:11:19;-2.80;99.90
54126;DHT22;40360;52.992;6.796;2022-12-18T11:16:24;-2.70;99.90
54126;DHT22;40360;52.992;6.796;2022-12-18T11:18:49;-2.60;99.90
54126;DHT22;40360;52.992;6.796;2022-12-18T11:21:16;-2.50;99.90
54126;DHT22;40360;52.992;6.796;2022-12-18T11:23:52;-2.50;99.90
54126;DHT22;40360;52.992;6.796;2022-12-18T11:26:19;-2.40;99.90
54126;DHT22;40360;52.992;6.796;2022-12-18T11:28:51;-2.40;99.90
54126;DHT22;40360;52.992;6.796;2022-12-18T11:31:21;-2.30;99.90
54126;DHT22;40360;52.992;6.796;2022-12-18T11:33:56;-2.30;99.90
54126;DHT22;40360;52.992;6.796;2022-12-18T11:36:23;-2.20;99.90
54126;DHT22;40360;52.992;6.796;2022-12-18T11:38:53;-2.20;99.90
54126;DHT22;40360;52.992;6.796;2022-12-18T11:44:22;-2.10;99.90
54126;DHT22;40360;52.992;6.796;2022-12-18T11:47:00;-2.00;99.90
54126;DHT22;40360;52.992;6.796;2022-12-18T11:49:32;-2.00;99.90
54126;DHT22;40360;52.992;6.796;2022-12-18T11:52:05;-2.00;99.90
54126;DHT22;40360;52.992;6.796;2022-12-18T11:54:35;-1.90;99.90
54126;DHT22;40360;52.992;6.796;2022-12-18T11:57:16;-1.90;99.90
54126;DHT22;40360;52.992;6.796;2022-12-18T12:19:34;-1.60;99.90
54126;DHT22;40360;52.992;6.796;2022-12-18T12:22:25;-1.60;99.90
54126;DHT22;40360;52.992;6.796;2022-12-18T12:27:59;-1.50;99.90
54126;DHT22;40360;52.992;6.796;2022-12-18T12:30:54;-1.40;99.90
54126;DHT22;40360;52.992;6.796;2022-12-18T12:33:43;-1.40;99.90
54126;DHT22;40360;52.992;6.796;2022-12-18T12:36:27;-1.40;99.90
54126;DHT22;40360;52.992;6.796;2022-12-18T12:38:59;-1.30;99.90
54126;DHT22;40360;52.992;6.796;2022-12-18T12:41:31;-1.30;99.90
54126;DHT22;40360;52.992;6.796;2022-12-18T12:44:29;-1.30;99.90
54126;DHT22;40360;52.992;6.796;2022-12-18T12:46:59;-1.20;99.90
54126;DHT22;40360;52.992;6.796;2022-12-18T12:49:27;-1.20;99.90
54126;DHT22;40360;52.992;6.796;2022-12-18T12:52:04;-1.20;99.90
54126;DHT22;40360;52.992;6.796;2022-12-18T12:54:32;-1.10;99.90
54126;DHT22;40360;52.992;6.796;2022-12-18T12:59:47;-1.00;99.90
54126;DHT22;40360;52.992;6.796;2022-12-18T13:05:39;-1.00;99.90
54126;DHT22;40360;52.992;6.796;2022-12-18T13:08:11;-1.00;99.90
54126;DHT22;40360;52.992;6.796;2022-12-18T13:10:41;-1.00;99.90
54126;DHT22;40360;52.992;6.796;2022-12-18T13:13:14;-0.90;99.90
54126;DHT22;40360;52.992;6.796;2022-12-18T13:18:28;-0.90;99.90
54126;DHT22;40360;52.992;6.796;2022-12-18T13:25:53;-0.90;99.90
54126;DHT22;40360;52.992;6.796;2022-12-18T13:31:10;-0.80;99.90
54126;DHT22;40360;52.992;6.796;2022-12-18T13:33:38;-0.80;99.90
54126;DHT22;40360;52.992;6.796;2022-12-18T13:39:49;-0.80;99.90
54126;DHT22;40360;52.992;6.796;2022-12-18T13:42:31;-0.80;99.90
54126;DHT22;40360;52.992;6.796;2022-12-18T13:45:43;-0.80;99.90
54126;DHT22;40360;52.992;6.796;2022-12-18T13:48:18;-0.90;99.90
54126;DHT22;40360;52.992;6.796;2022-12-18T13:50:49;-0.90;99.90
54126;DHT22;40360;52.992;6.796;2022-12-18T13:53:44;-0.80;99.90
54126;DHT22;40360;52.992;6.796;2022-12-18T13:56:08;-0.80;99.90
54126;DHT22;40360;52.992;6.796;2022-12-18T13:58:33;-0.80;99.90
54126;DHT22;40360;52.992;6.796;2022-12-18T14:00:59;-0.80;99.90
54126;DHT22;40360;52.992;6.796;2022-12-18T14:03:28;-0.80;99.90
54126;DHT22;40360;52.992;6.796;2022-12-18T14:06:00;-0.90;99.90
54126;DHT22;40360;52.992;6.796;2022-12-18T14:08:32;-0.90;99.90
54126;DHT22;40360;52.992;6.796;2022-12-18T14:10:58;-0.90;99.90
54126;DHT22;40360;52.992;6.796;2022-12-18T14:15:56;-0.90;99.90
54126;DHT22;40360;52.992;6.796;2022-12-18T14:18:26;-0.90;99.90
54126;DHT22;40360;52.992;6.796;2022-12-18T14:20:56;-0.90;99.90
54126;DHT22;40360;52.992;6.796;2022-12-18T14:23:40;-0.90;99.90
54126;DHT22;40360;52.992;6.796;2022-12-18T14:26:32;-1.00;99.90
54126;DHT22;40360;52.992;6.796;2022-12-18T14:29:01;-1.00;99.90
54126;DHT22;40360;52.992;6.796;2022-12-18T14:31:29;-1.00;99.90
54126;DHT22;40360;52.992;6.796;2022-12-18T14:33:58;-1.10;99.90
54126;DHT22;40360;52.992;6.796;2022-12-18T14:36:26;-1.10;99.90
54126;DHT22;40360;52.992;6.796;2022-12-18T14:38:59;-1.10;99.90
54126;DHT22;40360;52.992;6.796;2022-12-18T14:41:25;-1.20;99.90
54126;DHT22;40360;52.992;6.796;2022-12-18T14:43:53;-1.20;99.90
54126;DHT22;40360;52.992;6.796;2022-12-18T14:46:37;-1.20;99.90
54126;DHT22;40360;52.992;6.796;2022-12-18T14:49:17;-1.20;99.90
54126;DHT22;40360;52.992;6.796;2022-12-18T14:51:52;-1.20;99.90
54126;DHT22;40360;52.992;6.796;2022-12-18T14:54:19;-1.10;99.90
54126;DHT22;40360;52.992;6.796;2022-12-18T14:56:48;-1.20;99.90
54126;DHT22;40360;52.992;6.796;2022-12-18T14:59:15;-1.20;99.90
54126;DHT22;40360;52.992;6.796;2022-12-18T15:01:48;-1.30;99.90
54126;DHT22;40360;52.992;6.796;2022-12-18T15:04:37;-1.30;99.90
54126;DHT22;40360;52.992;6.796;2022-12-18T15:09:30;-1.30;99.90
54126;DHT22;40360;52.992;6.796;2022-12-18T15:11:58;-1.30;99.90
54126;DHT22;40360;52.992;6.796;2022-12-18T15:14:30;-1.30;99.90
54126;DHT22;40360;52.992;6.796;2022-12-18T15:16:58;-1.40;99.90
54126;DHT22;40360;52.992;6.796;2022-12-18T15:19:38;-1.40;99.90
54126;DHT22;40360;52.992;6.796;2022-12-18T15:22:20;-1.40;99.90
54126;DHT22;40360;52.992;6.796;2022-12-18T15:24:46;-1.40;99.90
54126;DHT22;40360;52.992;6.796;2022-12-18T15:27:25;-1.40;99.90
54126;DHT22;40360;52.992;6.796;2022-12-18T15:32:31;-1.40;99.90
54126;DHT22;40360;52.992;6.796;2022-12-18T15:35:14;-1.50;99.90
54126;DHT22;40360;52.992;6.796;2022-12-18T15:37:40;-1.40;99.90
54126;DHT22;40360;52.992;6.796;2022-12-18T15:40:16;-1.50;99.90
54126;DHT22;40360;52.992;6.796;2022-12-18T15:42:43;-1.50;99.90
54126;DHT22;40360;52.992;6.796;2022-12-18T15:45:27;-1.50;99.90
54126;DHT22;40360;52.992;6.796;2022-12-18T15:47:53;-1.50;99.90
54126;DHT22;40360;52.992;6.796;2022-12-18T15:50:19;-1.50;99.90
54126;DHT22;40360;52.992;6.796;2022-12-18T15:52:47;-1.50;99.90
54126;DHT22;40360;52.992;6.796;2022-12-18T15:55:23;-1.50;99.90
54126;DHT22;40360;52.992;6.796;2022-12-18T15:58:08;-1.50;99.90
54126;DHT22;40360;52.992;6.796;2022-12-18T16:00:36;-1.50;99.90
54126;DHT22;40360;52.992;6.796;2022-12-18T16:03:04;-1.50;99.90
54126;DHT22;40360;52.992;6.796;2022-12-18T16:05:31;-1.40;99.90
54126;DHT22;40360;52.992;6.796;2022-12-18T16:07:57;-1.40;99.90
54126;DHT22;40360;52.992;6.796;2022-12-18T16:10:25;-1.40;99.90
54126;DHT22;40360;52.992;6.796;2022-12-18T16:12:51;-1.60;99.90
54126;DHT22;40360;52.992;6.796;2022-12-18T16:15:17;-1.60;99.90
54126;DHT22;40360;52.992;6.796;2022-12-18T16:17:43;-1.50;99.90
54126;DHT22;40360;52.992;6.796;2022-12-18T16:20:22;-1.60;99.90
54126;DHT22;40360;52.992;6.796;2022-12-18T16:22:48;-1.60;99.90
54126;DHT22;40360;52.992;6.796;2022-12-18T16:25:26;-1.60;99.90
54126;DHT22;40360;52.992;6.796;2022-12-18T16:27:53;-1.60;99.90
54126;DHT22;40360;52.992;6.796;2022-12-18T16:30:27;-1.60;99.90
54126;DHT22;40360;52.992;6.796;2022-12-18T16:32:54;-1.60;99.90
54126;DHT22;40360;52.992;6.796;2022-12-18T16:35:22;-1.60;99.90
54126;DHT22;40360;52.992;6.796;2022-12-18T16:37:48;-1.50;99.90
54126;DHT22;40360;52.992;6.796;2022-12-18T16:40:15;-1.60;99.90
54126;DHT22;40360;52.992;6.796;2022-12-18T16:42:42;-1.50;99.90
54126;DHT22;40360;52.992;6.796;2022-12-18T16:45:11;-1.50;99.90
54126;DHT22;40360;52.992;6.796;2022-12-18T16:47:37;-1.50;99.90
54126;DHT22;40360;52.992;6.796;2022-12-18T16:50:03;-1.50;99.90
54126;DHT22;40360;52.992;6.796;2022-12-18T16:52:29;-1.50;99.90
54126;DHT22;40360;52.992;6.796;2022-12-18T16:54:55;-1.50;99.90
54126;DHT22;40360;52.992;6.796;2022-12-18T16:57:22;-1.50;99.90
54126;DHT22;40360;52.992;6.796;2022-12-18T16:59:50;-1.50;99.90
54126;DHT22;40360;52.992;6.796;2022-12-18T17:02:20;-1.40;99.90
54126;DHT22;40360;52.992;6.796;2022-12-18T17:04:46;-1.40;99.90
54126;DHT22;40360;52.992;6.796;2022-12-18T17:07:13;-1.40;99.90
54126;DHT22;40360;52.992;6.796;2022-12-18T17:09:39;-1.40;99.90
54126;DHT22;40360;52.992;6.796;2022-12-18T17:12:05;-1.40;99.90
54126;DHT22;40360;52.992;6.796;2022-12-18T17:14:32;-1.40;99.90
54126;DHT22;40360;52.992;6.796;2022-12-18T17:16:58;-1.40;99.90
54126;DHT22;40360;52.992;6.796;2022-12-18T17:19:25;-1.40;99.90
54126;DHT22;40360;52.992;6.796;2022-12-18T17:21:52;-1.40;99.90
54126;DHT22;40360;52.992;6.796;2022-12-18T17:24:19;-1.40;99.90
54126;DHT22;40360;52.992;6.796;2022-12-18T17:26:45;-1.40;99.90
54126;DHT22;40360;52.992;6.796;2022-12-18T17:29:16;-1.40;99.90
54126;DHT22;40360;52.992;6.796;2022-12-18T17:31:42;-1.40;99.90
54126;DHT22;40360;52.992;6.796;2022-12-18T17:34:10;-1.40;99.90
54126;DHT22;40360;52.992;6.796;2022-12-18T17:36:36;-1.30;99.90
54126;DHT22;40360;52.992;6.796;2022-12-18T17:39:03;-1.40;99.90
54126;DHT22;40360;52.992;6.796;2022-12-18T17:41:29;-1.30;99.90
54126;DHT22;40360;52.992;6.796;2022-12-18T17:44:03;-1.30;99.90
54126;DHT22;40360;52.992;6.796;2022-12-18T17:46:31;-1.30;99.90
54126;DHT22;40360;52.992;6.796;2022-12-18T17:48:58;-1.40;99.90
54126;DHT22;40360;52.992;6.796;2022-12-18T17:51:24;-1.30;99.90